createdAt,value
2017-12-03T00:00:04.987Z,3.63
2017-12-03T00:02:32.509Z,6.10
2017-12-03T00:05:00.963Z,4.00
2017-12-03T00:07:28.487Z,5.17
2017-12-03T00:09:56.761Z,4.60
2017-12-03T00:12:25.053Z,4.90
2017-12-03T00:14:53.317Z,3.17
2017-12-03T00:17:21.594Z,3.80
2017-12-03T00:19:49.865Z,3.90
2017-12-03T00:22:17.366Z,3.30
2017-12-03T00:24:44.885Z,5.40
2017-12-03T00:27:13.157Z,3.67
2017-12-03T00:29:41.445Z,3.40
2017-12-03T00:32:08.950Z,3.20
2017-12-03T00:34:36.472Z,4.80
2017-12-03T00:37:03.963Z,3.90
2017-12-03T00:39:31.504Z,3.30
2017-12-03T00:41:59.005Z,4.90
2017-12-03T00:44:26.530Z,5.03
2017-12-03T00:46:54.018Z,3.87
2017-12-03T00:49:21.518Z,4.63
2017-12-03T00:51:49.937Z,4.63
2017-12-03T00:54:17.458Z,4.10
2017-12-03T00:56:44.953Z,5.13
2017-12-03T00:59:12.475Z,3.77
2017-12-03T01:01:39.969Z,4.77
2017-12-03T01:04:07.489Z,7.23
2017-12-03T01:06:34.985Z,4.13
2017-12-03T01:09:03.457Z,6.10
2017-12-03T01:11:30.953Z,5.73
2017-12-03T01:13:59.245Z,4.20
2017-12-03T01:16:27.669Z,5.40
2017-12-03T01:18:55.185Z,4.13
2017-12-03T01:21:22.685Z,5.03
2017-12-03T01:23:50.204Z,9.07
2017-12-03T01:26:17.701Z,6.10
2017-12-03T01:28:45.290Z,7.03
2017-12-03T01:31:13.594Z,9.43
2017-12-03T01:33:41.090Z,4.47
2017-12-03T01:36:08.608Z,4.83
2017-12-03T01:38:36.122Z,4.73
2017-12-03T01:41:03.634Z,3.73
2017-12-03T01:43:31.121Z,7.30
2017-12-03T01:45:58.668Z,5.43
2017-12-03T01:48:26.173Z,6.80
2017-12-03T01:50:54.432Z,4.30
2017-12-03T01:53:22.717Z,4.67
2017-12-03T01:55:50.973Z,5.30
2017-12-03T01:58:20.432Z,5.20
2017-12-03T02:00:47.931Z,8.03
2017-12-03T02:03:15.461Z,3.93
2017-12-03T02:05:42.958Z,7.33
2017-12-03T02:08:11.246Z,3.50
2017-12-03T02:10:39.510Z,7.30
2017-12-03T02:13:07.783Z,4.47
2017-12-03T02:15:36.069Z,5.80
2017-12-03T02:18:04.329Z,5.20
2017-12-03T02:20:32.613Z,4.37
2017-12-03T02:23:00.878Z,6.10
2017-12-03T02:25:29.165Z,4.93
2017-12-03T02:27:57.428Z,4.60
2017-12-03T02:30:25.713Z,4.10
2017-12-03T02:32:53.969Z,3.80
2017-12-03T02:35:22.405Z,3.40
2017-12-03T02:37:49.929Z,3.50
2017-12-03T02:40:17.430Z,5.93
2017-12-03T02:42:46.909Z,5.43
2017-12-03T02:45:14.410Z,5.90
2017-12-03T02:47:41.934Z,5.03
2017-12-03T02:50:09.427Z,6.23
2017-12-03T02:52:38.877Z,6.00
2017-12-03T02:55:06.369Z,3.67
2017-12-03T02:57:33.866Z,4.50
2017-12-03T03:00:02.153Z,5.00
2017-12-03T03:02:29.657Z,4.10
2017-12-03T03:04:57.188Z,4.97
2017-12-03T03:07:24.686Z,4.80
2017-12-03T03:09:52.209Z,3.77
2017-12-03T03:12:19.705Z,4.70
2017-12-03T03:14:47.225Z,4.17
2017-12-03T03:17:14.812Z,6.03
2017-12-03T03:19:42.305Z,3.87
2017-12-03T03:22:11.520Z,5.63
2017-12-03T03:24:39.017Z,5.40
2017-12-03T03:27:06.538Z,5.80
2017-12-03T03:29:34.038Z,4.67
2017-12-03T03:32:01.557Z,5.73
2017-12-03T03:34:29.989Z,4.93
2017-12-03T03:36:57.501Z,4.03
2017-12-03T03:39:24.997Z,3.60
2017-12-03T03:41:52.484Z,5.50
2017-12-03T03:44:20.761Z,3.83
2017-12-03T03:46:48.252Z,5.20
2017-12-03T03:49:15.773Z,5.30
2017-12-03T03:51:44.245Z,4.73
2017-12-03T03:54:12.525Z,4.10
2017-12-03T03:56:41.724Z,5.73
2017-12-03T03:59:09.241Z,4.60
2017-12-03T04:01:36.735Z,4.13
2017-12-03T04:04:04.996Z,3.87
2017-12-03T04:06:33.293Z,4.27
2017-12-03T04:09:00.792Z,4.93
2017-12-03T04:11:28.308Z,4.37
2017-12-03T04:13:55.809Z,4.00
2017-12-03T04:16:23.403Z,3.83
2017-12-03T04:18:51.657Z,4.80
2017-12-03T04:21:19.151Z,4.77
2017-12-03T04:23:46.669Z,4.30
2017-12-03T04:26:14.166Z,5.87
2017-12-03T04:28:41.801Z,4.33
2017-12-03T04:31:09.290Z,5.40
2017-12-03T04:33:36.805Z,4.87
2017-12-03T04:36:04.305Z,3.80
2017-12-03T04:38:31.829Z,6.07
2017-12-03T04:40:59.325Z,3.70
2017-12-03T04:43:26.821Z,6.37
2017-12-03T04:45:54.341Z,3.97
2017-12-03T04:48:22.638Z,5.30
2017-12-03T04:50:50.153Z,5.60
2017-12-03T04:53:17.641Z,4.23
2017-12-03T04:55:45.161Z,4.40
2017-12-03T04:58:13.425Z,4.10
2017-12-03T05:00:41.712Z,4.80
2017-12-03T05:03:09.973Z,5.00
2017-12-03T05:05:38.233Z,4.23
2017-12-03T05:08:05.758Z,3.83
2017-12-03T05:10:33.260Z,4.17
2017-12-03T05:13:01.540Z,7.33
2017-12-03T05:15:29.801Z,5.37
2017-12-03T05:17:58.093Z,4.97
2017-12-03T05:20:26.353Z,5.33
2017-12-03T05:22:54.660Z,5.73
2017-12-03T05:25:22.153Z,4.63
2017-12-03T05:27:49.649Z,4.10
2017-12-03T05:30:17.930Z,4.30
2017-12-03T05:32:46.196Z,4.50
2017-12-03T05:35:13.713Z,4.90
2017-12-03T05:37:41.209Z,4.80
2017-12-03T05:40:08.728Z,4.50
2017-12-03T05:42:36.226Z,5.10
2017-12-03T05:45:04.485Z,4.90
2017-12-03T05:47:32.005Z,5.67
2017-12-03T05:49:59.497Z,4.00
2017-12-03T05:52:27.010Z,5.23
2017-12-03T05:54:54.509Z,3.60
2017-12-03T05:57:22.818Z,4.70
2017-12-03T05:59:51.081Z,3.70
2017-12-03T06:02:19.341Z,4.27
2017-12-03T06:04:46.854Z,3.37
2017-12-03T06:07:14.344Z,4.17
2017-12-03T06:09:41.861Z,4.70
2017-12-03T06:12:09.362Z,4.70
2017-12-03T06:14:39.745Z,4.53
2017-12-03T06:17:08.177Z,4.10
2017-12-03T06:19:35.680Z,3.67
2017-12-03T06:22:03.203Z,4.70
2017-12-03T06:24:31.465Z,3.90
2017-12-03T06:26:58.985Z,5.50
2017-12-03T06:29:26.481Z,4.70
2017-12-03T06:31:53.993Z,5.03
2017-12-03T06:34:21.489Z,6.07
2017-12-03T06:36:49.940Z,5.20
2017-12-03T06:39:17.452Z,4.03
2017-12-03T06:41:44.950Z,4.27
2017-12-03T06:44:12.469Z,5.97
2017-12-03T06:46:40.953Z,4.73
2017-12-03T06:49:08.473Z,5.60
2017-12-03T06:51:35.965Z,4.97
2017-12-03T06:54:04.441Z,5.40
2017-12-03T06:56:31.962Z,4.40
2017-12-03T06:58:59.453Z,5.20
2017-12-03T07:01:27.742Z,5.87
2017-12-03T07:03:55.228Z,4.67
2017-12-03T07:06:22.749Z,4.80
2017-12-03T07:08:50.252Z,5.33
2017-12-03T07:11:18.716Z,4.40
2017-12-03T07:13:46.239Z,4.60
2017-12-03T07:16:13.753Z,5.47
2017-12-03T07:18:41.276Z,5.17
2017-12-03T07:21:08.774Z,4.77
2017-12-03T07:23:36.288Z,4.23
2017-12-03T07:26:03.791Z,4.07
2017-12-03T07:28:32.065Z,4.87
2017-12-03T07:31:02.293Z,4.57
2017-12-03T07:33:29.792Z,4.80
2017-12-03T07:35:57.313Z,7.60
2017-12-03T07:38:26.537Z,5.17
2017-12-03T07:40:54.057Z,4.60
2017-12-03T07:43:21.554Z,4.70
2017-12-03T07:45:49.070Z,6.93
2017-12-03T07:48:16.588Z,5.03
2017-12-03T07:50:44.085Z,4.27
2017-12-03T07:53:11.601Z,4.20
2017-12-03T07:55:39.093Z,4.00
2017-12-03T07:58:06.608Z,4.27
2017-12-03T08:00:34.102Z,5.17
2017-12-03T08:03:01.625Z,4.67
2017-12-03T08:05:29.121Z,3.20
2017-12-03T08:07:56.613Z,4.13
2017-12-03T08:10:26.081Z,4.10
2017-12-03T08:12:53.583Z,4.67
2017-12-03T08:15:21.102Z,4.93
2017-12-03T08:17:48.598Z,4.87
2017-12-03T08:20:16.113Z,3.70
2017-12-03T08:22:44.553Z,4.60
2017-12-03T08:25:12.081Z,5.43
2017-12-03T08:27:39.606Z,4.40
2017-12-03T08:30:07.102Z,5.50
2017-12-03T08:32:34.630Z,4.77
2017-12-03T08:35:02.892Z,5.00
2017-12-03T08:37:30.405Z,5.30
2017-12-03T08:39:57.897Z,4.23
2017-12-03T08:42:25.385Z,4.43
2017-12-03T08:44:53.668Z,3.20
2017-12-03T08:47:21.933Z,4.87
2017-12-03T08:49:50.221Z,3.67
2017-12-03T08:52:17.721Z,5.23
2017-12-03T08:54:45.241Z,4.60
2017-12-03T08:57:12.733Z,8.63
2017-12-03T08:59:40.239Z,12.00
2017-12-03T09:02:08.529Z,51.07
2017-12-03T09:04:36.061Z,166.20
2017-12-03T09:07:04.378Z,329.90
2017-12-03T09:09:31.881Z,213.57
2017-12-03T09:11:59.405Z,191.50
2017-12-03T09:14:26.917Z,131.40
2017-12-03T09:16:55.209Z,111.50
2017-12-03T09:19:22.737Z,156.77
2017-12-03T09:21:50.238Z,103.13
2017-12-03T09:24:19.724Z,97.73
2017-12-03T09:26:47.222Z,110.93
2017-12-03T09:29:14.746Z,69.90
2017-12-03T09:31:42.276Z,94.97
2017-12-03T09:34:10.549Z,90.77
2017-12-03T09:36:38.838Z,89.27
2017-12-03T09:39:07.138Z,77.30
2017-12-03T09:41:34.662Z,60.60
2017-12-03T09:44:02.946Z,60.67
2017-12-03T09:46:31.243Z,57.80
2017-12-03T09:48:58.746Z,54.27
2017-12-03T09:51:26.277Z,40.43
2017-12-03T09:53:54.735Z,52.00
2017-12-03T09:56:22.263Z,55.77
2017-12-03T09:58:50.528Z,46.67
2017-12-03T10:01:18.053Z,50.73
2017-12-03T10:03:45.562Z,56.13
2017-12-03T10:06:13.853Z,38.97
2017-12-03T10:08:43.353Z,31.13
2017-12-03T10:11:10.857Z,46.40
2017-12-03T10:13:38.356Z,40.87
2017-12-03T10:16:06.648Z,34.73
2017-12-03T10:18:34.153Z,35.67
2017-12-03T10:21:01.677Z,45.63
2017-12-03T10:23:29.229Z,41.67
2017-12-03T10:25:56.734Z,39.03
2017-12-03T10:28:26.198Z,34.90
2017-12-03T10:30:53.732Z,31.37
2017-12-03T10:33:21.241Z,35.70
2017-12-03T10:35:49.690Z,29.60
2017-12-03T10:38:19.962Z,30.13
2017-12-03T10:40:48.225Z,35.57
2017-12-03T10:43:15.750Z,31.03
2017-12-03T10:45:43.273Z,25.00
2017-12-03T10:48:10.808Z,24.30
2017-12-03T10:50:39.068Z,32.93
2017-12-03T10:53:06.574Z,25.00
2017-12-03T10:55:34.105Z,31.67
2017-12-03T10:58:03.324Z,25.40
2017-12-03T11:00:32.224Z,28.67
2017-12-03T11:02:59.963Z,26.70
2017-12-03T11:05:28.913Z,20.13
2017-12-03T11:07:56.645Z,21.07
2017-12-03T11:10:25.114Z,18.83
2017-12-03T11:12:52.633Z,19.00
2017-12-03T11:15:20.903Z,18.90
2017-12-03T11:17:48.432Z,12.67
2017-12-03T11:20:15.933Z,21.70
2017-12-03T11:22:44.221Z,13.00
2017-12-03T11:25:11.717Z,12.03
2017-12-03T11:27:39.269Z,21.60
2017-12-03T11:30:06.773Z,14.70
2017-12-03T11:32:34.305Z,13.23
2017-12-03T11:35:01.838Z,13.20
2017-12-03T11:37:29.353Z,9.63
2017-12-03T11:39:57.621Z,10.30
2017-12-03T11:42:25.906Z,14.27
2017-12-03T11:44:54.177Z,10.17
2017-12-03T11:47:23.429Z,13.10
2017-12-03T11:49:50.934Z,16.07
2017-12-03T11:52:21.194Z,12.93
2017-12-03T11:54:48.701Z,17.97
2017-12-03T11:57:17.052Z,12.30
2017-12-03T11:59:44.651Z,13.03
2017-12-03T12:02:14.301Z,13.67
2017-12-03T12:04:42.840Z,11.33
2017-12-03T12:07:11.242Z,12.23
2017-12-03T12:09:38.742Z,9.13
2017-12-03T12:12:06.256Z,14.33
2017-12-03T12:14:34.705Z,10.80
2017-12-03T12:17:02.993Z,8.20
2017-12-03T12:19:31.815Z,17.67
2017-12-03T12:21:59.379Z,12.60
2017-12-03T12:24:26.900Z,7.93
2017-12-03T12:26:54.416Z,8.43
2017-12-03T12:29:22.033Z,11.87
2017-12-03T12:31:49.573Z,10.70
2017-12-03T12:34:17.078Z,5.40
2017-12-03T12:36:46.533Z,5.50
2017-12-03T12:39:14.044Z,12.50
2017-12-03T12:41:41.574Z,6.83
2017-12-03T12:44:09.069Z,9.23
2017-12-03T12:46:37.367Z,7.87
2017-12-03T12:49:05.653Z,9.63
2017-12-03T12:51:33.146Z,7.43
2017-12-03T12:54:00.660Z,6.60
2017-12-03T12:56:28.954Z,11.13
2017-12-03T12:58:58.461Z,9.10
2017-12-03T13:01:25.958Z,9.33
2017-12-03T13:03:53.478Z,7.43
2017-12-03T13:06:21.136Z,6.63
2017-12-03T13:08:49.105Z,7.60
2017-12-03T13:11:17.071Z,9.70
2017-12-03T13:13:44.762Z,6.97
2017-12-03T13:16:12.601Z,7.33
2017-12-03T13:18:41.492Z,5.27
2017-12-03T13:21:09.353Z,7.20
2017-12-03T13:23:37.320Z,6.97
2017-12-03T13:26:05.000Z,5.83
2017-12-03T13:28:32.616Z,6.10
2017-12-03T13:31:00.970Z,10.67
2017-12-03T13:33:29.506Z,7.50
2017-12-03T13:35:57.083Z,4.13
2017-12-03T13:38:24.566Z,6.63
2017-12-03T13:40:52.070Z,6.00
2017-12-03T13:43:19.585Z,7.03
2017-12-03T13:45:47.841Z,5.00
2017-12-03T13:48:15.355Z,7.00
2017-12-03T13:50:42.864Z,6.50
2017-12-03T13:53:10.367Z,8.30
2017-12-03T13:55:37.881Z,5.40
2017-12-03T13:58:05.375Z,6.33
2017-12-03T14:00:32.901Z,8.53
2017-12-03T14:03:00.388Z,6.30
2017-12-03T14:05:28.841Z,7.90
2017-12-03T14:07:57.360Z,9.23
2017-12-03T14:10:24.954Z,7.20
2017-12-03T14:12:52.989Z,6.20
2017-12-03T14:15:21.729Z,5.70
2017-12-03T14:17:50.025Z,6.47
2017-12-03T14:20:18.320Z,8.13
2017-12-03T14:22:47.214Z,6.30
2017-12-03T14:25:15.284Z,7.93
2017-12-03T14:27:43.149Z,5.20
2017-12-03T14:30:12.141Z,7.70
2017-12-03T14:32:41.133Z,7.77
2017-12-03T14:35:09.100Z,6.80
2017-12-03T14:37:37.172Z,4.97
2017-12-03T14:40:06.163Z,11.40
2017-12-03T14:42:33.973Z,6.80
2017-12-03T14:45:02.711Z,4.53
2017-12-03T14:47:30.680Z,6.07
2017-12-03T14:49:58.209Z,6.73
2017-12-03T14:52:26.500Z,7.47
2017-12-03T14:54:54.951Z,7.90
2017-12-03T14:57:23.237Z,8.70
2017-12-03T14:59:51.497Z,7.63
2017-12-03T15:02:19.017Z,7.00
2017-12-03T15:04:46.525Z,10.20
2017-12-03T15:07:14.029Z,9.30
2017-12-03T15:09:43.502Z,7.10
2017-12-03T15:12:11.029Z,13.57
2017-12-03T15:14:39.376Z,8.33
2017-12-03T15:17:08.833Z,15.70
2017-12-03T15:19:36.342Z,8.37
2017-12-03T15:22:03.862Z,9.53
2017-12-03T15:24:31.376Z,9.80
2017-12-03T15:27:00.862Z,7.47
2017-12-03T15:29:28.365Z,15.83
2017-12-03T15:31:55.877Z,6.03
2017-12-03T15:34:25.836Z,6.90
2017-12-03T15:36:53.353Z,5.13
2017-12-03T15:39:20.849Z,5.70
2017-12-03T15:41:48.366Z,6.83
2017-12-03T15:44:15.860Z,6.40
2017-12-03T15:46:43.377Z,6.23
2017-12-03T15:49:10.882Z,6.60
2017-12-03T15:51:38.397Z,5.27
2017-12-03T15:54:05.893Z,4.57
2017-12-03T15:56:33.409Z,6.70
2017-12-03T15:59:01.676Z,5.50
2017-12-03T16:01:29.197Z,5.03
2017-12-03T16:03:56.689Z,7.60
2017-12-03T16:06:24.202Z,7.10
2017-12-03T16:08:52.665Z,6.90
2017-12-03T16:11:20.945Z,4.63
2017-12-03T16:13:49.216Z,5.63
2017-12-03T16:16:17.497Z,9.20
2017-12-03T16:18:44.984Z,4.00
2017-12-03T16:21:12.497Z,4.00
2017-12-03T16:23:41.669Z,8.60
2017-12-03T16:26:09.189Z,8.80
2017-12-03T16:28:36.685Z,5.37
2017-12-03T16:31:04.201Z,6.10
2017-12-03T16:33:31.974Z,4.37
2017-12-03T16:35:59.494Z,4.83
2017-12-03T16:38:27.763Z,5.93
2017-12-03T16:40:56.045Z,6.53
2017-12-03T16:43:23.568Z,4.47
2017-12-03T16:45:51.089Z,7.33
2017-12-03T16:48:18.583Z,5.10
2017-12-03T16:50:46.105Z,3.60
2017-12-03T16:53:13.614Z,4.27
2017-12-03T16:55:41.902Z,4.33
2017-12-03T16:58:11.102Z,6.10
2017-12-03T17:00:39.360Z,4.50
2017-12-03T17:03:07.649Z,4.00
2017-12-03T17:05:35.909Z,5.30
2017-12-03T17:08:05.365Z,4.60
2017-12-03T17:10:32.861Z,3.90
2017-12-03T17:13:00.385Z,5.37
2017-12-03T17:15:27.886Z,3.63
2017-12-03T17:17:56.150Z,7.73
2017-12-03T17:20:24.438Z,4.60
2017-12-03T17:22:52.710Z,3.50
2017-12-03T17:25:20.245Z,6.80
2017-12-03T17:27:47.750Z,5.37
2017-12-03T17:30:17.204Z,6.17
2017-12-03T17:32:44.702Z,4.33
2017-12-03T17:35:12.217Z,4.27
2017-12-03T17:37:39.723Z,4.10
2017-12-03T17:40:08.169Z,4.60
2017-12-03T17:42:35.666Z,3.40
2017-12-03T17:45:03.157Z,8.87
2017-12-03T17:47:30.680Z,5.10
2017-12-03T17:49:58.178Z,4.17
2017-12-03T17:52:25.694Z,3.70
2017-12-03T17:54:53.194Z,5.57
2017-12-03T17:57:20.722Z,4.80
2017-12-03T17:59:48.217Z,4.03
2017-12-03T18:02:15.737Z,3.70
2017-12-03T18:04:43.225Z,4.03
2017-12-03T18:07:10.741Z,3.93
2017-12-03T18:09:39.201Z,3.50
2017-12-03T18:12:06.693Z,5.60
2017-12-03T18:14:34.208Z,3.50
2017-12-03T18:17:01.722Z,3.70
2017-12-03T18:19:29.244Z,4.00
2017-12-03T18:21:57.685Z,3.30
2017-12-03T18:24:25.964Z,3.67
2017-12-03T18:26:54.225Z,3.67
2017-12-03T18:29:21.746Z,4.03
2017-12-03T18:31:49.253Z,3.43
2017-12-03T18:34:18.497Z,3.60
2017-12-03T18:36:46.002Z,4.03
2017-12-03T18:39:14.282Z,3.67
2017-12-03T18:41:42.540Z,3.77
2017-12-03T18:44:10.061Z,4.40
2017-12-03T18:46:37.553Z,4.13
2017-12-03T18:49:05.073Z,3.30
2017-12-03T18:51:33.505Z,5.80
2017-12-03T18:54:01.789Z,4.30
2017-12-03T18:56:30.052Z,4.53
2017-12-03T18:58:58.333Z,3.43
2017-12-03T19:01:26.593Z,3.60
2017-12-03T19:03:54.109Z,4.40
2017-12-03T19:06:21.603Z,3.40
2017-12-03T19:08:49.908Z,3.40
2017-12-03T19:11:17.409Z,3.50
2017-12-03T19:13:44.920Z,3.73
2017-12-03T19:16:13.186Z,3.00
2017-12-03T19:18:41.465Z,4.00
2017-12-03T19:21:09.729Z,3.60
2017-12-03T19:23:38.018Z,3.87
2017-12-03T19:26:05.602Z,3.10
2017-12-03T19:28:33.096Z,3.33
2017-12-03T19:31:02.569Z,4.10
2017-12-03T19:33:30.065Z,4.70
2017-12-03T19:35:57.584Z,3.77
2017-12-03T19:38:25.073Z,4.13
2017-12-03T19:40:52.586Z,3.40
2017-12-03T19:43:21.054Z,3.40
2017-12-03T19:45:48.568Z,2.60
2017-12-03T19:48:16.064Z,3.27
2017-12-03T19:50:43.601Z,3.37
2017-12-03T19:53:11.857Z,3.50
2017-12-03T19:55:39.378Z,3.27
2017-12-03T19:58:06.873Z,3.70
2017-12-03T20:00:37.136Z,3.77
2017-12-03T20:03:04.645Z,3.57
2017-12-03T20:05:32.162Z,2.73
2017-12-03T20:07:59.658Z,3.60
2017-12-03T20:10:27.173Z,3.10
2017-12-03T20:12:54.661Z,4.70
2017-12-03T20:15:22.191Z,5.10
2017-12-03T20:17:49.689Z,5.77
2017-12-03T20:20:17.205Z,3.73
2017-12-03T20:22:44.704Z,3.57
2017-12-03T20:25:12.245Z,6.90
2017-12-03T20:27:39.740Z,8.17
2017-12-03T20:30:08.030Z,41.50
2017-12-03T20:32:35.530Z,61.10
2017-12-03T20:35:03.062Z,26.93
2017-12-03T20:37:30.565Z,17.90
2017-12-03T20:39:58.093Z,23.10
2017-12-03T20:42:25.595Z,16.73
2017-12-03T20:44:53.887Z,13.93
2017-12-03T20:47:22.352Z,12.90
2017-12-03T20:49:50.645Z,10.70
2017-12-03T20:52:18.141Z,15.23
2017-12-03T20:54:47.605Z,9.10
2017-12-03T20:57:15.097Z,18.40
2017-12-03T20:59:42.608Z,9.30
2017-12-03T21:02:10.883Z,12.87
2017-12-03T21:04:39.174Z,7.53
2017-12-03T21:07:06.669Z,6.13
2017-12-03T21:09:34.194Z,7.20
2017-12-03T21:12:01.688Z,9.73
2017-12-03T21:14:29.200Z,5.13
2017-12-03T21:16:56.696Z,7.40
2017-12-03T21:19:26.154Z,4.80
2017-12-03T21:21:53.648Z,5.80
2017-12-03T21:24:21.176Z,5.90
2017-12-03T21:26:49.574Z,5.17
2017-12-03T21:29:17.108Z,5.10
2017-12-03T21:31:44.609Z,3.90
2017-12-03T21:34:12.129Z,4.60
2017-12-03T21:36:39.622Z,4.03
2017-12-03T21:39:07.132Z,3.80
2017-12-03T21:41:34.624Z,9.40
2017-12-03T21:44:02.118Z,4.93
2017-12-03T21:46:29.637Z,4.70
2017-12-03T21:48:57.153Z,6.23
2017-12-03T21:51:25.409Z,5.20
2017-12-03T21:53:52.907Z,5.70
2017-12-03T21:56:20.421Z,6.13
2017-12-03T21:58:47.924Z,6.50
2017-12-03T22:01:15.437Z,5.80
2017-12-03T22:03:42.958Z,9.43
2017-12-03T22:06:10.449Z,7.90
2017-12-03T22:08:39.918Z,6.80
2017-12-03T22:11:07.413Z,5.30
2017-12-03T22:13:35.697Z,5.10
2017-12-03T22:16:03.953Z,6.23
2017-12-03T22:18:31.473Z,4.00
2017-12-03T22:20:58.966Z,3.63
2017-12-03T22:23:26.481Z,3.33
2017-12-03T22:25:53.973Z,7.03
2017-12-03T22:28:21.464Z,8.33
2017-12-03T22:30:49.753Z,7.17
2017-12-03T22:33:17.249Z,5.83
2017-12-03T22:35:44.774Z,5.90
2017-12-03T22:38:12.281Z,17.03
2017-12-03T22:40:39.800Z,5.43
2017-12-03T22:43:07.301Z,4.43
2017-12-03T22:45:34.822Z,6.30
2017-12-03T22:48:03.292Z,5.33
2017-12-03T22:50:30.797Z,6.27
2017-12-03T22:52:58.308Z,6.37
2017-12-03T22:55:26.757Z,4.30
2017-12-03T22:57:55.032Z,5.03
2017-12-03T23:00:33.347Z,3.70
2017-12-03T23:03:02.905Z,3.83
2017-12-03T23:05:31.347Z,5.10
2017-12-03T23:07:58.909Z,6.13
2017-12-03T23:10:26.874Z,5.30
2017-12-03T23:12:55.529Z,3.60
2017-12-03T23:15:23.893Z,4.10
2017-12-03T23:17:51.417Z,3.53
2017-12-03T23:20:19.050Z,3.93
2017-12-03T23:22:46.735Z,6.33
2017-12-03T23:25:15.298Z,4.57
2017-12-03T23:27:43.373Z,6.67
2017-12-03T23:30:10.873Z,3.37
2017-12-03T23:32:39.325Z,3.53
2017-12-03T23:35:06.841Z,3.93
2017-12-03T23:37:34.329Z,3.03
2017-12-03T23:40:03.789Z,2.90
2017-12-03T23:42:32.053Z,3.40
2017-12-03T23:45:00.337Z,3.03
2017-12-03T23:47:28.601Z,3.50
2017-12-03T23:49:56.982Z,5.67
2017-12-03T23:52:25.806Z,3.10
2017-12-03T23:54:54.696Z,3.23
2017-12-03T23:57:22.663Z,2.60
2017-12-03T23:59:50.631Z,3.20
